Weather reports worldwide

Advertisment
Konya, Turkey (17244): temperature & dewpoint: 11.07.2019 10:00:00 - 17.07.2019 10:00:00 (EEST)Konya, Turkey (17244): wind speed: 11.07.2019 10:00:00 - 17.07.2019 10:00:00 (EEST)Konya, Turkey (17244): wind direction: 11.07.2019 10:00:00 - 17.07.2019 10:00:00 (EEST)Konya, Turkey (17244): visibility: 11.07.2019 10:00:00 - 17.07.2019 10:00:00 (EEST)
Date & Time tt [°C] td [°C] ff [km/h] ff [kn] dd vv [km]
17.07.2019 10:00:00 22,0 14,0 5 3 - 10
17.07.2019 09:00:00 19,9 13,0 4 2 - 10
17.07.2019 08:00:00 19,0 13,0 11 6 SE 10
17.07.2019 07:00:00 18,0 14,0 4 2 - 10
17.07.2019 06:00:00 16,5 14,3 8 4 SSE 10
17.07.2019 05:00:00 17,0 14,0 0 0 N 10
17.07.2019 04:00:00 17,0 14,0 0 0 N 10
17.07.2019 03:00:00 18,0 15,6 0 0 N 10
17.07.2019 02:00:00 17,0 15,0 2 1 N 10
17.07.2019 01:00:00 17,0 15,0 8 4 N 10
17.07.2019 00:00:00 17,3 13,5 24 13 NNW 7
16.07.2019 23:00:00 18,0 15,0 5 3 NNW 10
16.07.2019 22:00:00 17,0 12,0 18 10 WNW 3,5
16.07.2019 21:00:00 24,9 9,0 4 2 - 10
16.07.2019 20:00:00 25,0 10,0 5 3 SE 10
16.07.2019 19:00:00 27,0 10,0 8 4 SSE 10
16.07.2019 18:00:00 26,8 9,1 4 2 S 20
16.07.2019 17:00:00 27,0 9,0 11 6 E 10
16.07.2019 16:00:00 27,0 9,0 8 4 SE 10
16.07.2019 15:00:00 27,3 9,6 5 3 SW 20
16.07.2019 14:00:00 27,0 10,0 15 8 S 10
16.07.2019 13:00:00 25,0 9,0 13 7 SE 10
16.07.2019 12:00:00 24,0 8,3 11 6 SSE 10
16.07.2019 11:00:00 22,0 9,0 8 4 E 10
16.07.2019 10:00:00 21,0 9,0 8 4 ENE 10
16.07.2019 09:00:00 19,7 8,9 5 3 NNE 10
16.07.2019 08:00:00 19,0 9,0 11 6 N 10
16.07.2019 07:00:00 17,0 9,0 9 5 N 10
16.07.2019 06:00:00 14,2 8,3 4 2 NNW 10
16.07.2019 05:00:00 15,0 9,0 8 4 NNW 10
16.07.2019 04:00:00 15,0 9,0 13 7 NNW 10
16.07.2019 03:00:00 15,5 8,6 11 6 N 10
16.07.2019 02:00:00 16,0 9,0 13 7 N 10
16.07.2019 01:00:00 17,0 8,0 13 7 N 10
16.07.2019 00:00:00 17,2 8,0 13 7 NNW 10
15.07.2019 23:00:00 18,0 8,0 9 5 N 10
15.07.2019 22:00:00 19,0 8,0 18 10 NNW 10
15.07.2019 21:00:00 20,2 8,1 15 8 N 20
15.07.2019 20:00:00 22,0 8,0 22 12 N 10
15.07.2019 19:00:00 24,0 8,0 28 15 N 10
15.07.2019 18:00:00 25,7 8,1 9 5 ENE 10
15.07.2019 17:00:00 24,0 8,0 8 4 NNE 10
15.07.2019 16:00:00 25,0 9,0 5 3 E 10
15.07.2019 15:00:00 23,6 7,8 16 9 ENE 10
15.07.2019 14:00:00 25,0 9,0 13 7 S 10
15.07.2019 13:00:00 23,0 8,0 4 2 - 10
15.07.2019 12:00:00 23,0 8,9 9 5 - 10
15.07.2019 11:00:00 21,0 10,0 5 3 - 10
15.07.2019 10:00:00 19,0 11,0 15 8 N 10
15.07.2019 09:00:00 18,1 13,0 24 13 N 10
15.07.2019 08:00:00 17,0 13,0 5 3 SSE 10
15.07.2019 07:00:00 16,0 14,0 9 5 SE 10
15.07.2019 06:00:00 16,0 14,4 5 3 - 10
15.07.2019 05:00:00 16,0 14,0 15 8 NE 10
15.07.2019 04:00:00 17,0 14,0 8 4 NNE 10
15.07.2019 03:00:00 18,8 12,1 16 9 WSW 10
15.07.2019 02:00:00 20,0 11,0 13 7 W 10
15.07.2019 01:00:00 19,0 12,0 16 9 NNW 10
15.07.2019 00:00:00 18,4 11,4 18 10 N 10
14.07.2019 23:00:00 22,0 11,0 21 11 WSW 10
14.07.2019 22:00:00 22,0 11,0 22 12 SW 10
14.07.2019 21:00:00 22,9 10,9 18 10 SW 20
14.07.2019 20:00:00 24,0 11,0 29 16 W 10
14.07.2019 19:00:00 24,0 11,0 28 15 W 10
14.07.2019 18:00:00 25,4 9,7 31 17 W 10
14.07.2019 17:00:00 27,0 8,0 22 12 W 10
14.07.2019 16:00:00 28,0 8,0 21 11 SSW 10
14.07.2019 15:00:00 27,8 8,5 18 10 SSE 10
14.07.2019 14:00:00 26,0 8,0 8 4 SSE 10
14.07.2019 13:00:00 26,0 7,0 13 7 S 10
14.07.2019 12:00:00 24,7 5,3 11 6 SSE 10
14.07.2019 11:00:00 24,0 4,0 13 7 S 10
14.07.2019 10:00:00 23,0 3,0 4 2 - 10
14.07.2019 09:00:00 20,9 2,6 5 3 SE 10
14.07.2019 08:00:00 19,0 3,0 5 3 SE 10
14.07.2019 07:00:00 16,0 3,0 0 0 N 10
14.07.2019 06:00:00 13,5 2,3 0 0 N 10
14.07.2019 05:00:00 13,0 2,0 0 0 N 10
14.07.2019 04:00:00 15,0 2,0 5 3 WNW 10
14.07.2019 03:00:00 15,4 1,9 5 3 WNW 20
14.07.2019 02:00:00 16,0 2,0 5 3 WNW 10
14.07.2019 01:00:00 16,0 2,0 9 5 NW 10
14.07.2019 00:00:00 17,1 2,3 8 4 NNW 10
13.07.2019 23:00:00 17,0 3,0 11 6 N 10
13.07.2019 22:00:00 19,0 3,0 13 7 N 10
13.07.2019 21:00:00 20,2 2,8 13 7 N 10
13.07.2019 20:00:00 23,0 4,0 13 7 N 10
13.07.2019 19:00:00 24,0 5,0 16 9 N 10
13.07.2019 18:00:00 24,1 4,6 16 9 NNE 10
13.07.2019 17:00:00 26,0 5,0 11 6 N 10
13.07.2019 16:00:00 24,0 5,0 13 7 NE 10
13.07.2019 15:00:00 23,4 4,8 8 4 NE 10
13.07.2019 14:00:00 24,0 5,0 11 6 - 10
13.07.2019 13:00:00 23,0 5,0 15 8 NNE 10
13.07.2019 12:00:00 21,3 4,5 15 8 NNE 10
13.07.2019 11:00:00 20,0 5,0 21 11 NNE 10
13.07.2019 10:00:00 20,0 5,0 16 9 NNE 10
13.07.2019 09:00:00 18,6 3,5 16 9 N 10
13.07.2019 08:00:00 17,0 4,0 21 11 NNE 10
13.07.2019 07:00:00 15,0 5,0 15 8 N 10
13.07.2019 06:00:00 14,1 4,7 9 5 NNW 10
13.07.2019 05:00:00 15,0 5,0 11 6 NW 10
13.07.2019 04:00:00 15,0 5,0 18 10 NNW 10
13.07.2019 03:00:00 16,3 4,9 28 15 NNW 10
13.07.2019 02:00:00 17,0 5,0 29 16 NNW 10
13.07.2019 01:00:00 17,0 7,0 29 16 NNW 10
13.07.2019 00:00:00 18,4 5,7 28 15 NNW 20
12.07.2019 23:00:00 19,0 6,0 24 13 NNW 10
12.07.2019 22:00:00 21,0 7,0 34 18 NNW 10
12.07.2019 21:00:00 21,5 6,6 18 10 NNW 10
12.07.2019 20:00:00 24,0 7,0 18 10 N 10
12.07.2019 19:00:00 24,0 8,0 22 12 N 10
12.07.2019 18:00:00 24,7 8,2 18 10 N 20
12.07.2019 17:00:00 25,0 10,0 15 8 N 10
12.07.2019 16:00:00 25,0 10,0 21 11 N 10
12.07.2019 15:00:00 24,7 9,8 18 10 NNE 10
12.07.2019 14:00:00 24,0 10,0 11 6 NNE 10
12.07.2019 13:00:00 23,0 11,0 13 7 - 10
12.07.2019 12:00:00 22,3 10,7 15 8 ENE 10
12.07.2019 11:00:00 20,0 11,0 18 10 NNE 10
12.07.2019 10:00:00 19,0 11,0 22 12 NNE 10
12.07.2019 09:00:00 18,1 10,3 18 10 N 10
12.07.2019 08:00:00 17,0 11,0 18 10 N 10
12.07.2019 07:00:00 17,0 10,0 11 6 N 10
12.07.2019 06:00:00 15,7 11,3 16 9 N 20
12.07.2019 05:00:00 16,0 11,0 15 8 N 10
12.07.2019 04:00:00 17,0 11,0 16 9 NNW 10
12.07.2019 03:00:00 16,7 11,3 24 13 NNW 10
12.07.2019 02:00:00 17,0 11,0 22 12 N 10
12.07.2019 01:00:00 17,0 12,0 21 11 N 10
12.07.2019 00:00:00 16,9 12,2 22 12 N 10
11.07.2019 23:00:00 18,0 12,0 18 10 N 10
11.07.2019 22:00:00 18,0 11,0 24 13 NNW 10
11.07.2019 21:00:00 19,4 12,1 28 15 NNW 20
11.07.2019 20:00:00 20,0 13,0 37 20 N 10
11.07.2019 19:00:00 22,0 13,0 39 21 NNW 7
11.07.2019 18:00:00 31,5 5,9 39 21 W 5
11.07.2019 17:00:00 33,0 6,0 37 20 WSW 6
11.07.2019 16:00:00 33,0 6,0 39 21 WSW 10
11.07.2019 15:00:00 32,3 5,7 34 18 WSW 10
11.07.2019 14:00:00 30,0 10,0 21 11 SSE 10
11.07.2019 13:00:00 30,0 11,0 22 12 S 10
11.07.2019 12:00:00 28,0 10,6 21 11 SSE 10
11.07.2019 11:00:00 26,0 12,0 16 9 S 10
11.07.2019 10:00:00 25,0 13,0 15 8 SSE 10

tt = temperature
td = dewpoint
ff = wind speed
dd = wind direction
vv = visibility

Next stations